Flight Track Log - Related Links

Times and Time Zones

All times are in EDT time to prevent confusion due to time zone crossing. See the SWA2054 flight status page for this flight to view local times or setup timezone preferences in your user account.

Time Position Orientation Groundspeed Altitude Reporting Facility
EDT Latitude Longitude Course Direction KTS MPH feet Rate Location/Type
Fri 07:57:51 AM 42.3667 -70.9833 90° East 160 184 1,100  Level KA90
Fri 07:58:45 AM 42.3667 -70.9167 90° East 224 258 3,600 2,950 Climbing KA90
Fri 07:59:51 AM 42.3833 -70.8000 79° East 297 342 7,000 3,065 Climbing KA90
Fri 08:01:04 AM 42.3292 -70.7297 136° Southeast 277 319 10,700 3,023 Climbing Boston Center
Fri 08:02:02 AM 42.2506 -70.7797 205° Southwest 235 270 13,600 3,025 Climbing Boston Center
Fri 08:03:03 AM 42.2419 -70.8892 264° West 221 254 16,700 2,951 Climbing Boston Center
Fri 08:04:04 AM 42.2397 -71.0381 269° West 328 377 19,600 2,705 Climbing Boston Center
Fri 08:05:05 AM 42.2331 -71.1811 266° West 363 418 22,200 2,542 Climbing Boston Center
Fri 08:06:02 AM 42.2261 -71.3269 266° West 380 437 24,600 2,339 Climbing Boston Center
Fri 08:07:03 AM 42.2233 -71.4756 269° West 393 452 26,800 1,967 Climbing Boston Center
Fri 08:08:04 AM 42.2139 -71.6131 265° West 406 467 28,600 1,866 Climbing Boston Center
Fri 08:09:02 AM 42.2067 -71.7869 267° West 419 482 30,500 2,017 Climbing Boston Center
Fri 08:10:03 AM 42.1992 -71.9300 266° West 425 489 32,600 2,016 Climbing Boston Center
Fri 08:11:04 AM 42.1914 -72.0983 266° West 420 483 34,600 1,587 Climbing Boston Center
Fri 08:12:04 AM 42.1856 -72.2439 267° West 427 491 35,800 1,373 Climbing Boston Center
Fri 08:13:02 AM 42.1753 -72.4119 265° West 422 486 37,300 1,412 Climbing Boston Center
Fri 08:14:03 AM 42.1397 -72.5436 250° West 422 486 38,600 1,180 Climbing Boston Center
Fri 08:15:04 AM 42.0833 -72.6864 242° Southwest 422 486 39,700 706 Climbing Boston Center
Fri 08:16:02 AM 42.0225 -72.8172 238° Southwest 427 491 40,000 151 Climbing Boston Center
Fri 08:17:03 AM 41.9617 -72.9483 238° Southwest 427 491 40,000  Level Boston Center
Fri 08:18:02 AM 41.8919 -73.1011 239° Southwest 443 510 40,000  Level Boston Center
Fri 08:19:03 AM 41.8308 -73.2342 238° Southwest 433 498 40,000  Level Boston Center
Fri 08:20:04 AM 41.7694 -73.3614 237° Southwest 421 484 40,000  Level Boston Center
Fri 08:21:02 AM 41.7097 -73.4914 238° Southwest 415 478 40,000  Level Boston Center
Fri 08:22:02 AM 41.6544 -73.6097 238° Southwest 415 478 40,000  Level Boston Center
Fri 08:23:03 AM 41.5861 -73.7528 237° Southwest 420 483 40,000  Level Boston Center
Fri 08:23:36 AM 41.5597 -73.8125 239° Southwest 431 496 40,000  Level New Center
Fri 08:24:36 AM 41.4958 -73.9453 237° Southwest 436 502 40,000  Level New Center
Fri 08:25:36 AM 41.4361 -74.0753 239° Southwest 431 496 40,000  Level New Center
Fri 08:26:36 AM 41.3719 -74.2103 238° Southwest 431 496 40,000  Level New Center
Fri 08:27:36 AM 41.3078 -74.3339 235° Southwest 426 490 40,000  Level New Center
Fri 08:28:36 AM 41.2433 -74.4658 237° Southwest 421 484 40,000  Level New Center
Fri 08:29:36 AM 41.1747 -74.5889 233° Southwest 421 484 40,000  Level New Center
Fri 08:30:36 AM 41.1039 -74.7169 234° Southwest 432 497 40,000  Level New Center
Fri 08:31:36 AM 41.0353 -74.8422 234° Southwest 432 497 40,000  Level New Center
Fri 08:32:36 AM 40.9661 -74.9700 234° Southwest 432 497 40,000  Level New Center
Fri 08:33:36 AM 40.9031 -75.0978 237° Southwest 432 497 40,000  Level New Center
Fri 08:34:36 AM 40.8400 -75.2308 238° Southwest 427 491 40,000  Level New Center
Fri 08:35:36 AM 40.7767 -75.3611 237° Southwest 427 491 40,000  Level New Center
Fri 08:36:36 AM 40.7233 -75.4944 242° Southwest 421 484 40,000  Level New Center
Fri 08:37:36 AM 40.6739 -75.6361 245° Southwest 421 484 40,000  Level New Center
Fri 08:38:36 AM 40.6222 -75.7747 244° Southwest 421 484 40,000  Level New Center
Fri 08:39:36 AM 40.5706 -75.9103 243° Southwest 421 484 40,000  Level New Center
Fri 08:40:36 AM 40.5122 -76.0506 241° Southwest 427 491 40,000  Level New Center
Fri 08:41:36 AM 40.4603 -76.1883 244° Southwest 427 491 40,000  Level New Center
Fri 08:42:36 AM 40.4058 -76.3258 243° Southwest 422 486 40,000  Level New Center
Fri 08:43:36 AM 40.3533 -76.4633 243° Southwest 422 486 40,000  Level New Center
Fri 08:44:36 AM 40.3008 -76.6006 243° Southwest 422 486 40,000  Level New Center
Fri 08:45:36 AM 40.2461 -76.7375 242° Southwest 422 486 40,000  Level New Center
Fri 08:46:36 AM 40.2406 -76.8867 267° West 408 470 40,000  Level New Center
Fri 08:47:36 AM 40.2389 -77.0361 269° West 408 470 40,000  Level New Center
Fri 08:48:36 AM 40.2394 -77.1831 270° West 408 470 40,000  Level New Center
Fri 08:49:36 AM 40.2392 -77.3406 270° West 408 470 40,000  Level New Center
Fri 08:51:46 AM 40.2367 -77.6367 269° West 404 465 40,000  Level Cleveland Center
Fri 08:52:48 AM 40.2414 -77.8117 272° West 401 461 40,000  Level Cleveland Center
Fri 08:53:50 AM 40.2419 -77.9517 270° West 400 460 40,000  Level Cleveland Center
Fri 08:54:51 AM 40.2456 -78.0969 272° West 401 461 40,000  Level Cleveland Center
Fri 08:55:53 AM 40.2472 -78.2417 271° West 400 460 40,000  Level Cleveland Center
Fri 08:56:55 AM 40.2492 -78.3867 271° West 399 459 40,000  Level Cleveland Center
Fri 08:57:57 AM 40.2517 -78.5622 271° West 402 463 40,000  Level Cleveland Center
Fri 08:58:59 AM 40.2536 -78.7078 271° West 402 463 40,000  Level Cleveland Center
Fri 09:00:01 AM 40.2547 -78.8544 271° West 403 464 40,000  Level Cleveland Center
Fri 09:01:03 AM 40.2572 -78.9983 271° West 400 460 40,000  Level Cleveland Center
Fri 09:02:05 AM 40.2578 -79.1439 270° West 402 463 40,000  Level Cleveland Center
Fri 09:03:07 AM 40.2583 -79.3072 270° West 405 466 40,000  Level Cleveland Center
Fri 09:04:09 AM 40.2594 -79.4539 271° West 404 465 40,000  Level Cleveland Center
Fri 09:05:10 AM 40.2597 -79.5997 270° West 403 464 40,000  Level Cleveland Center
Fri 09:06:12 AM 40.2600 -79.7469 270° West 404 465 40,000  Level Cleveland Center
Fri 09:07:14 AM 40.2597 -79.8928 270° West 401 461 40,000  Level Cleveland Center
Fri 09:08:16 AM 40.2586 -80.0389 269° West 398 458 40,000  Level Cleveland Center
Fri 09:09:18 AM 40.2583 -80.2167 270° West 398 458 40,000  Level Cleveland Center
Fri 09:10:20 AM 40.2592 -80.3622 270° West 398 458 40,000  Level Cleveland Center
Fri 09:11:22 AM 40.2583 -80.5050 270° West 391 450 40,000  Level Cleveland Center
Fri 09:12:24 AM 40.2567 -80.6483 269° West 393 452 40,000  Level Cleveland Center
Fri 09:13:26 AM 40.2553 -80.7919 269° West 395 455 40,000  Level Cleveland Center
Fri 09:14:28 AM 40.2547 -80.9361 270° West 397 457 40,000  Level Cleveland Center
Fri 09:15:30 AM 40.2525 -81.0814 269° West 399 459 40,000  Level Cleveland Center
Fri 09:16:32 AM 40.2503 -81.2269 269° West 401 461 40,000  Level Cleveland Center
Fri 09:17:34 AM 40.2478 -81.4011 269° West 400 460 40,000  Level Cleveland Center
Fri 09:18:36 AM 40.2464 -81.5447 269° West 397 457 40,000  Level Cleveland Center
Fri 09:19:38 AM 40.2444 -81.6878 269° West 395 455 40,000  Level Cleveland Center
Fri 09:20:40 AM 40.2408 -81.8450 268° West 395 455 40,000  Level Cleveland Center
Fri 09:21:42 AM 40.2381 -81.9867 269° West 392 451 40,000  Level Cleveland Center
Fri 09:22:44 AM 40.2353 -82.1300 269° West 393 452 40,000  Level Cleveland Center
Fri 09:23:46 AM 40.2319 -82.2711 268° West 391 450 40,000  Level Cleveland Center
Fri 09:24:48 AM 40.2286 -82.4128 268° West 391 450 40,000  Level Cleveland Center
Fri 09:25:50 AM 40.2256 -82.5822 269° West 391 450 40,000  Level Cleveland Center
Fri 09:26:52 AM 40.2219 -82.7239 268° West 391 450 40,000  Level Cleveland Center
Fri 09:27:54 AM 40.2186 -82.8667 268° West 394 453 40,000  Level Cleveland Center
Fri 09:28:56 AM 40.2156 -83.0092 268° West 394 453 40,000  Level Cleveland Center
Fri 09:29:58 AM 40.2117 -83.1517 268° West 394 453 40,000  Level Cleveland Center
Fri 09:31:00 AM 40.2075 -83.3211 268° West 393 452 40,000  Level Cleveland Center
Fri 09:32:24 AM 40.2011 -83.5189 268° West 392 451 40,000  Level Indianapolis Center
Fri 09:33:26 AM 40.1967 -83.6586 268° West 390 449 40,000  Level Indianapolis Center
Fri 09:34:28 AM 40.1922 -83.7994 268° West 390 449 40,000  Level Indianapolis Center
Fri 09:35:30 AM 40.1872 -83.9383 267° West 388 447 40,000  Level Indianapolis Center
Fri 09:36:32 AM 40.1819 -84.0778 267° West 387 445 40,000  Level Indianapolis Center
Fri 09:37:34 AM 40.1756 -84.2431 267° West 383 441 40,000  Level Indianapolis Center
Fri 09:38:36 AM 40.1703 -84.3817 267° West 383 441 40,000  Level Indianapolis Center
Fri 09:39:38 AM 40.1647 -84.5192 267° West 380 437 40,000  Level Indianapolis Center
Fri 09:40:40 AM 40.1572 -84.6597 266° West 387 445 40,000  Level Indianapolis Center
Fri 09:41:30 AM 40.1531 -84.7703 267° West 385 443 40,000  Level Indianapolis Center
Fri 09:42:32 AM 40.1464 -84.9106 266° West 385 443 40,000  Level Indianapolis Center
Fri 09:43:34 AM 40.1400 -85.0789 267° West 387 445 40,000  Level Indianapolis Center
Fri 09:44:36 AM 40.1333 -85.2169 266° West 385 443 40,000  Level Indianapolis Center
Fri 09:45:38 AM 40.1272 -85.3550 267° West 384 442 40,000  Level Indianapolis Center
Fri 09:46:40 AM 40.1211 -85.4922 267° West 382 440 40,000  Level Indianapolis Center
Fri 09:47:42 AM 40.1142 -85.6303 266° West 382 440 40,000  Level Indianapolis Center
Fri 09:48:44 AM 40.1069 -85.7664 266° West 381 438 40,000  Level Indianapolis Center
Fri 09:49:46 AM 40.0983 -85.9306 266° West 381 438 40,000  Level Indianapolis Center
Fri 09:50:48 AM 40.0917 -86.0667 266° West 380 437 40,000  Level Indianapolis Center
Fri 09:51:50 AM 40.0847 -86.2036 266° West 382 440 40,000  Level Indianapolis Center
Fri 09:52:53 AM 40.0772 -86.3403 266° West 382 440 40,000  Level Indianapolis Center
Fri 09:53:55 AM 40.0675 -86.5067 266° West 387 445 40,000  Level Indianapolis Center
Fri 09:54:57 AM 40.0583 -86.6464 265° West 390 449 40,000  Level Indianapolis Center
Fri 09:55:59 AM 40.0506 -86.7881 266° West 393 452 40,000  Level Indianapolis Center
Fri 09:57:01 AM 40.0414 -86.9292 265° West 394 453 40,000  Level Indianapolis Center
Fri 09:58:03 AM 40.0322 -87.0708 265° West 396 456 40,000  Level Indianapolis Center
Fri 09:59:05 AM 40.0214 -87.2397 265° West 393 452 40,000  Level Indianapolis Center
Fri 10:00:07 AM 40.0125 -87.3806 265° West 391 450 40,000  Level Indianapolis Center
Fri 10:01:09 AM 40.0042 -87.5186 266° West 386 444 40,000  Level Indianapolis Center
Fri 10:02:11 AM 39.9942 -87.6583 265° West 387 445 40,000  Level Indianapolis Center
Fri 10:03:13 AM 39.9847 -87.7972 265° West 387 445 40,000  Level Indianapolis Center
Fri 10:04:05 AM 39.9753 -87.9353 265° West 386 444 40,000  Level Chicago Center
Fri 10:05:07 AM 39.9650 -88.0744 265° West 387 445 40,000  Level Chicago Center
Fri 10:06:09 AM 39.9569 -88.2044 265° West 387 445 40,000  Level Chicago Center
Fri 10:07:11 AM 39.9456 -88.3439 264° West 386 444 40,000  Level Chicago Center
Fri 10:08:13 AM 39.9344 -88.5122 265° West 386 444 40,000  Level Chicago Center
Fri 10:10:27 AM 39.9103 -88.8247 264° West 387 445 40,000  Level Indianapolis Center
Fri 10:11:30 AM 39.8986 -88.9611 264° West 384 442 40,000  Level Indianapolis Center
Fri 10:12:32 AM 39.8881 -89.0972 264° West 381 438 40,000  Level Indianapolis Center
Fri 10:13:38 AM 39.8733 -89.2597 263° West 383 441 40,000  Level Kansas Center
Fri 10:14:40 AM 39.8622 -89.3969 264° West 382 440 40,000  Level Kansas Center
Fri 10:15:43 AM 39.8517 -89.5361 264° West 383 441 40,000  Level Kansas Center
Fri 10:16:45 AM 39.8397 -89.6769 264° West 388 447 40,000  Level Kansas Center
Fri 10:17:47 AM 39.8414 -89.8172 271° West 389 448 40,000  Level Kansas Center
Fri 10:18:51 AM 39.8425 -89.9603 271° West 393 452 40,000  Level Kansas Center
Fri 10:19:52 AM 39.8433 -90.1025 270° West 393 452 40,000  Level Kansas Center
Fri 10:20:53 AM 39.8456 -90.2731 271° West 392 451 40,000  Level Kansas Center
Fri 10:21:54 AM 39.8467 -90.4161 271° West 393 452 40,000  Level Kansas Center
Fri 10:22:58 AM 39.8472 -90.5572 270° West 392 451 40,000  Level Kansas Center
Fri 10:23:59 AM 39.8481 -90.6961 270° West 387 445 40,000  Level Kansas Center
Fri 10:25:02 AM 39.8478 -90.8356 270° West 385 443 40,000  Level Kansas Center
Fri 10:26:03 AM 39.8478 -90.9867 270° West 385 443 40,000  Level Kansas Center
Fri 10:27:06 AM 39.8478 -91.1253 270° West 385 443 40,000  Level Kansas Center
Fri 10:28:06 AM 39.8472 -91.2628 270° West 385 443 40,000  Level Kansas Center
Fri 10:29:10 AM 39.8397 -91.4000 266° West 383 441 40,000  Level Kansas Center
Fri 10:30:12 AM 39.8258 -91.5661 264° West 385 443 40,000  Level Kansas Center
Fri 10:31:15 AM 39.8156 -91.7028 264° West 385 443 40,000 -484 Level Kansas Center
Fri 10:32:16 AM 39.8056 -91.8408 265° West 385 443 39,000 -942 Descending Kansas Center
Fri 10:33:16 AM 39.7942 -91.9778 264° West 384 442 38,100 -864 Descending Kansas Center
Fri 10:34:21 AM 39.7839 -92.1147 264° West 383 441 37,200 -1,008 Descending Kansas Center
Fri 10:35:21 AM 39.7708 -92.2775 264° West 380 437 36,000 -1,065 Descending Kansas Center
Fri 10:36:25 AM 39.7594 -92.4164 264° West 383 441 35,000 -1,440 Descending Kansas Center
Fri 10:37:26 AM 39.7483 -92.5547 264° West 385 443 33,000 -1,967 Descending Kansas Center
Fri 10:38:27 AM 39.7372 -92.6861 264° West 377 434 31,000 -1,920 Descending Kansas Center
Fri 10:39:31 AM 39.7472 -92.8081 276° West 358 412 29,000 -1,872 Descending Kansas Center
Fri 10:40:32 AM 39.7736 -92.9308 286° West 352 405 27,100 -1,869 Descending Kansas Center
Fri 10:41:33 AM 39.7578 -93.0692 262° West 330 380 25,200 -1,488 Descending Kansas Center
Fri 10:42:37 AM 39.7408 -93.1836 259° West 324 373 24,000 -1,645 Descending Kansas Center
Fri 10:43:37 AM 39.7228 -93.2956 258° West 320 368 21,800 -1,984 Descending Kansas Center
Fri 10:44:41 AM 39.7053 -93.4075 259° West 319 367 19,900 -1,887 Descending Kansas Center
Fri 10:45:41 AM 39.6878 -93.5186 258° West 318 366 17,900 -1,839 Descending Kansas Center
Fri 10:46:45 AM 39.6714 -93.6272 259° West 311 358 16,100 -1,920 Descending Kansas Center
Fri 10:47:46 AM 39.6508 -93.7561 258° West 299 344 13,900 -1,935 Descending Kansas Center
Fri 10:48:49 AM 39.6344 -93.8572 258° West 299 344 12,100 -1,500 Descending Kansas Center
Fri 10:49:50 AM 39.5961 -93.9667 246° West 295 339 10,800 -1,016 Descending Kansas Center
Fri 10:50:53 AM 39.5822 -94.0650 260° West 290 334 10,000 -683 Descending Kansas Center
Fri 10:51:53 AM 39.5647 -94.1608 257° West 286 329 9,400 -1,016 Descending Kansas Center
Fri 10:52:57 AM 39.5458 -94.2669 257° West 271 312 7,900 -1,344 Descending Kansas Center
Fri 10:53:58 AM 39.5306 -94.3553 257° West 263 303 6,600 -1,113 Descending Kansas Center
Fri 10:55:01 AM 39.5136 -94.4517 257° West 246 283 5,600 -1,258 Descending Kansas Center
Fri 10:56:02 AM 39.4992 -94.5286 256° West 232 267 4,000 -1,248 Descending Kansas Center
Fri 10:57:06 AM 39.4839 -94.6203 258° West 232 267 3,000 -480 Descending Kansas Center
Fri 10:58:07 AM 39.4572 -94.6722 236° Southwest 180 207 3,000 -148 Level Kansas Center
Fri 10:59:08 AM 39.4117 -94.6944 201° Southwest 155 178 2,700 -435 Descending Kansas Center
Fri 11:00:11 AM 39.3781 -94.7042 193° South 131 151 2,100 -629 Descending Kansas Center
Fri 11:01:12 AM 39.3433 -94.7147 193° South 117 135 1,400 -537 Descending Kansas Center
Fri 11:02:14 AM 39.3189 -94.7217 192° South 118 136 1,000 -387 Descending Kansas Center

Login

Don't have an account? Register now (free) for customized features, flight alerts, and more!